Time;durP1;ratioP1;P1;durP2;ratioP2;P2;SDS_P1;SDS_P2;PMS_P1;PMS_P2;Temp;Humidity;BMP_temperature;BMP_pressure;BME280_temperature;BME280_humidity;BME280_pressure;Samples;Min_cycle;Max_cycle;Signal;HPM_P1;HPM_P2
2023/01/20 00:00:02;;;;;;;16.73;9.57;;;-0.90;99.90;;;;;;5040915;28;20048;-68
2023/01/20 00:02:28;;;;;;;15.55;9.73;;;-0.90;99.90;;;;;;5047695;28;20402;-68
2023/01/20 00:04:54;;;;;;;18.67;11.15;;;-0.90;99.90;;;;;;5044448;28;20033;-68
2023/01/20 00:07:19;;;;;;;17.58;10.32;;;-0.90;99.90;;;;;;5043898;28;20466;-68
2023/01/20 00:09:45;;;;;;;21.60;11.65;;;-0.80;99.90;;;;;;5043102;28;20021;-68
2023/01/20 00:12:10;;;;;;;25.13;13.10;;;-0.80;99.90;;;;;;5046432;28;20528;-67
2023/01/20 00:14:36;;;;;;;19.90;12.20;;;-0.70;99.90;;;;;;5043153;28;20067;-67
2023/01/20 00:17:02;;;;;;;20.13;12.32;;;-0.70;99.90;;;;;;5046566;28;20103;-67
2023/01/20 00:19:27;;;;;;;24.50;12.50;;;-0.70;99.90;;;;;;5048763;28;20028;-68
2023/01/20 00:21:53;;;;;;;21.25;12.48;;;-0.60;99.90;;;;;;5034960;28;20466;-67
2023/01/20 00:24:19;;;;;;;24.13;13.18;;;-0.50;99.90;;;;;;5050143;28;20033;-69
2023/01/20 00:26:44;;;;;;;25.00;13.93;;;-0.60;99.90;;;;;;5040963;28;20040;-66
2023/01/20 00:29:10;;;;;;;22.73;13.18;;;-0.60;99.90;;;;;;5049142;28;20377;-67
2023/01/20 00:31:37;;;;;;;30.15;15.50;;;-0.60;99.90;;;;;;5040157;28;20037;-66
2023/01/20 00:34:02;;;;;;;22.83;13.57;;;-0.60;99.90;;;;;;5048324;28;20058;-66
2023/01/20 00:36:30;;;;;;;25.17;14.10;;;-0.60;99.90;;;;;;5036929;28;20021;-66
2023/01/20 00:38:56;;;;;;;21.75;13.20;;;-0.60;99.90;;;;;;5033045;28;20033;-66
2023/01/20 00:41:22;;;;;;;21.27;13.20;;;-0.70;99.90;;;;;;5047119;28;20029;-66
2023/01/20 00:43:48;;;;;;;24.15;13.75;;;-0.80;99.90;;;;;;5048728;28;20032;-66
2023/01/20 00:46:14;;;;;;;26.02;12.90;;;-0.70;99.90;;;;;;5043049;28;20052;-66
2023/01/20 00:48:41;;;;;;;21.38;12.05;;;-0.80;99.90;;;;;;5034625;28;20509;-66
2023/01/20 00:51:08;;;;;;;18.42;11.45;;;-0.80;99.90;;;;;;5044380;28;20462;-66
2023/01/20 00:53:34;;;;;;;19.10;11.85;;;-0.80;99.90;;;;;;5034528;28;20060;-66
2023/01/20 00:56:00;;;;;;;18.73;11.82;;;-0.80;99.90;;;;;;5051925;28;20033;-66
2023/01/20 00:58:25;;;;;;;17.27;11.27;;;-0.80;99.90;;;;;;5035758;28;20033;-68
2023/01/20 01:00:52;;;;;;;19.45;11.55;;;-0.90;99.90;;;;;;5048083;28;20017;-67
2023/01/20 01:03:18;;;;;;;20.88;11.10;;;-0.80;99.90;;;;;;5052125;28;20082;-68
2023/01/20 01:05:44;;;;;;;19.27;11.13;;;-0.90;99.90;;;;;;5046596;28;20033;-67
2023/01/20 01:08:10;;;;;;;18.67;10.77;;;-0.80;99.90;;;;;;5046434;28;20029;-66
2023/01/20 01:10:36;;;;;;;18.15;10.88;;;-0.80;99.90;;;;;;5047011;28;20049;-66
2023/01/20 01:13:03;;;;;;;22.48;11.35;;;-0.80;99.90;;;;;;5051431;28;20395;-66
2023/01/20 01:15:29;;;;;;;19.02;10.32;;;-0.80;99.90;;;;;;5044503;28;20041;-67
2023/01/20 01:17:56;;;;;;;20.95;11.30;;;-0.80;99.90;;;;;;5051280;28;20028;-65
2023/01/20 01:20:22;;;;;;;21.15;11.38;;;-0.80;99.90;;;;;;5032463;28;20026;-66
2023/01/20 01:22:48;;;;;;;21.80;10.90;;;-0.80;99.90;;;;;;5041272;28;20350;-66
2023/01/20 01:25:13;;;;;;;18.20;11.50;;;-0.80;99.90;;;;;;5044403;28;20029;-66
2023/01/20 01:27:39;;;;;;;21.77;12.25;;;-0.90;99.90;;;;;;5048418;28;20035;-67
2023/01/20 01:30:05;;;;;;;20.13;11.25;;;-0.90;99.90;;;;;;5033057;28;20057;-66
2023/01/20 01:32:31;;;;;;;22.70;12.30;;;-0.90;99.90;;;;;;5045879;28;20070;-66
2023/01/20 01:34:56;;;;;;;21.00;11.57;;;-0.90;99.90;;;;;;5044915;28;20028;-66
2023/01/20 01:37:22;;;;;;;23.73;13.07;;;-0.90;99.90;;;;;;5050474;28;20442;-67
2023/01/20 01:39:48;;;;;;;25.40;12.73;;;-0.90;99.90;;;;;;5046069;28;20075;-67
2023/01/20 01:42:16;;;;;;;24.25;13.18;;;-0.90;99.90;;;;;;5032257;28;20036;-66
2023/01/20 01:45:09;;;;;;;21.67;11.88;;;-0.80;99.90;;;;;;5039629;28;20033;-66
2023/01/20 01:47:44;;;;;;;24.75;11.00;;;-0.80;99.90;;;;;;5038856;28;20060;-66
2023/01/20 01:50:15;;;;;;;22.85;12.32;;;-0.80;99.90;;;;;;5040772;28;20033;-66
2023/01/20 01:52:46;;;;;;;21.52;11.13;;;-0.80;99.90;;;;;;5040783;28;20918;-67
2023/01/20 01:55:13;;;;;;;21.25;11.10;;;-0.70;99.90;;;;;;5034178;28;20060;-66
2023/01/20 01:57:39;;;;;;;18.95;11.77;;;-0.70;99.90;;;;;;5040243;28;20033;-66
2023/01/20 02:00:05;;;;;;;20.02;10.55;;;-0.70;99.90;;;;;;5051345;28;20138;-67
2023/01/20 02:02:31;;;;;;;22.35;11.57;;;-0.70;99.90;;;;;;5046073;28;20390;-67
2023/01/20 02:04:57;;;;;;;16.80;10.20;;;-0.60;99.90;;;;;;5045310;28;20555;-66
2023/01/20 02:07:23;;;;;;;17.67;10.30;;;-0.60;99.90;;;;;;5039417;28;20077;-67
2023/01/20 02:09:49;;;;;;;18.50;10.50;;;-0.60;99.90;;;;;;5039937;28;20053;-66
2023/01/20 02:12:17;;;;;;;19.60;10.18;;;-0.70;99.90;;;;;;5049573;28;20029;-67
2023/01/20 02:14:47;;;;;;;17.95;11.20;;;-0.70;99.90;;;;;;5038754;28;20554;-67
2023/01/20 02:17:33;;;;;;;17.70;10.70;;;-0.70;99.90;;;;;;5039366;28;20060;-67
2023/01/20 02:20:27;;;;;;;20.05;10.48;;;-0.70;99.90;;;;;;5039140;28;20025;-66
2023/01/20 02:23:07;;;;;;;17.42;11.10;;;-0.70;99.90;;;;;;5042001;28;20064;-66
2023/01/20 02:25:36;;;;;;;21.77;11.50;;;-0.70;99.90;;;;;;5042263;28;20096;-66
2023/01/20 02:28:04;;;;;;;19.80;12.00;;;-0.60;99.90;;;;;;5050247;28;20082;-65
2023/01/20 02:30:42;;;;;;;19.95;11.88;;;-0.60;99.90;;;;;;5042803;28;20045;-66
2023/01/20 02:33:18;;;;;;;22.38;11.85;;;-0.60;99.90;;;;;;5042965;28;20072;-66
2023/01/20 02:35:48;;;;;;;23.58;12.90;;;-0.50;99.90;;;;;;5041901;28;20029;-66
2023/01/20 02:38:39;;;;;;;21.88;12.30;;;-0.40;99.90;;;;;;5042996;28;20063;-66
2023/01/20 02:41:20;;;;;;;22.35;13.27;;;-0.40;99.90;;;;;;5036407;28;20048;-66
2023/01/20 02:44:16;;;;;;;24.85;13.77;;;-0.50;99.90;;;;;;5033652;28;20121;-66
2023/01/20 02:47:28;;;;;;;30.30;14.50;;;-0.50;99.90;;;;;;5045350;28;20037;-66
2023/01/20 02:50:00;;;;;;;24.60;13.73;;;-0.50;99.90;;;;;;5031365;28;20048;-66
2023/01/20 02:52:30;;;;;;;26.42;15.45;;;-0.50;99.90;;;;;;5033415;28;20048;-66
2023/01/20 02:55:00;;;;;;;24.58;15.63;;;-0.50;99.90;;;;;;5048466;28;20040;-66
2023/01/20 02:57:35;;;;;;;24.13;14.88;;;-0.50;99.90;;;;;;5040899;28;20047;-66
2023/01/20 03:00:08;;;;;;;25.00;14.43;;;-0.60;99.90;;;;;;5043932;28;20062;-66
2023/01/20 03:02:37;;;;;;;28.33;16.25;;;-0.60;99.90;;;;;;5040269;28;20445;-65
2023/01/20 03:05:12;;;;;;;25.60;15.88;;;-0.60;99.90;;;;;;5033615;28;20048;-66
2023/01/20 03:07:41;;;;;;;31.13;16.67;;;-0.50;99.90;;;;;;5048284;28;20040;-65
2023/01/20 03:10:11;;;;;;;30.00;16.13;;;-0.60;99.90;;;;;;5040508;28;20454;-65
2023/01/20 03:12:47;;;;;;;25.10;15.00;;;-0.60;99.90;;;;;;5044715;28;20033;-67
2023/01/20 03:15:14;;;;;;;29.48;16.10;;;-0.60;99.90;;;;;;5036562;28;20130;-67
2023/01/20 03:17:40;;;;;;;29.48;16.85;;;-0.60;99.90;;;;;;5047059;28;20025;-68
2023/01/20 03:20:06;;;;;;;29.60;17.27;;;-0.60;99.90;;;;;;5040930;28;20029;-67
2023/01/20 03:22:32;;;;;;;27.50;16.40;;;-0.60;99.90;;;;;;5041487;28;20040;-67
2023/01/20 03:24:58;;;;;;;23.63;15.40;;;-0.60;99.90;;;;;;5039129;28;20371;-67
2023/01/20 03:27:24;;;;;;;26.98;16.40;;;-0.60;99.90;;;;;;5038983;28;20055;-67
2023/01/20 03:29:50;;;;;;;26.42;15.23;;;-0.60;99.90;;;;;;5037158;28;20056;-67
2023/01/20 03:32:17;;;;;;;26.90;16.38;;;-0.60;99.90;;;;;;5040404;28;20120;-67
2023/01/20 03:34:43;;;;;;;22.73;14.85;;;-0.60;99.90;;;;;;5048859;28;20060;-67
2023/01/20 03:37:11;;;;;;;24.73;14.77;;;-0.60;99.90;;;;;;5042523;28;20474;-67
2023/01/20 03:39:38;;;;;;;25.92;15.30;;;-0.60;99.90;;;;;;5036825;28;20095;-67
2023/01/20 03:42:07;;;;;;;26.13;15.50;;;-0.60;99.90;;;;;;5050008;28;20053;-66
2023/01/20 03:44:41;;;;;;;24.55;15.95;;;-0.50;99.90;;;;;;5042848;28;20029;-66
2023/01/20 03:47:21;;;;;;;23.60;14.40;;;-0.50;99.90;;;;;;5047877;28;20029;-66
2023/01/20 03:50:17;;;;;;;25.80;14.48;;;-0.50;99.90;;;;;;5043596;28;20052;-66
2023/01/20 03:52:49;;;;;;;22.45;12.98;;;-0.40;99.90;;;;;;5037297;28;20026;-65
2023/01/20 03:55:21;;;;;;;22.67;12.30;;;-0.50;99.90;;;;;;5041822;28;20386;-66
2023/01/20 03:58:03;;;;;;;20.85;12.73;;;-0.50;99.90;;;;;;5040754;28;20029;-65
2023/01/20 04:00:31;;;;;;;23.50;12.90;;;-0.50;99.90;;;;;;5042454;28;20029;-66
2023/01/20 04:02:59;;;;;;;16.90;10.77;;;-0.50;99.90;;;;;;5046850;28;20355;-66
2023/01/20 04:05:27;;;;;;;18.05;9.90;;;-0.50;99.90;;;;;;5042650;28;20108;-66
2023/01/20 04:07:56;;;;;;;17.00;10.45;;;-0.50;99.90;;;;;;5049021;28;20036;-66
2023/01/20 04:10:23;;;;;;;14.10;9.82;;;-0.50;99.90;;;;;;5042359;28;20478;-67
2023/01/20 04:12:49;;;;;;;18.55;10.57;;;-0.50;99.90;;;;;;5052642;28;20393;-67
2023/01/20 04:15:16;;;;;;;17.23;9.50;;;-0.50;99.90;;;;;;5034027;28;20052;-65
2023/01/20 04:17:42;;;;;;;14.95;9.45;;;-0.50;99.90;;;;;;5046291;28;20056;-65
2023/01/20 04:20:11;;;;;;;13.65;8.38;;;-0.50;99.90;;;;;;5042780;28;20053;-65
2023/01/20 04:22:56;;;;;;;15.23;9.48;;;-0.50;99.90;;;;;;5043041;28;20826;-66
2023/01/20 04:25:30;;;;;;;13.50;8.65;;;-0.60;99.90;;;;;;5044385;28;20069;-67
2023/01/20 04:27:56;;;;;;;17.48;9.35;;;-0.60;99.90;;;;;;5041736;28;20088;-66
2023/01/20 04:30:22;;;;;;;14.93;9.45;;;-0.60;99.90;;;;;;5039017;28;20041;-66
2023/01/20 04:32:47;;;;;;;14.63;9.25;;;-0.60;99.90;;;;;;5049840;28;20386;-66
2023/01/20 04:35:16;;;;;;;14.07;9.02;;;-0.60;99.90;;;;;;5035863;28;20052;-66
2023/01/20 04:37:42;;;;;;;14.82;8.73;;;-0.60;99.90;;;;;;5038220;28;20051;-67
2023/01/20 04:40:08;;;;;;;13.68;7.97;;;-0.60;99.90;;;;;;5040891;28;20506;-66
2023/01/20 04:42:34;;;;;;;16.73;8.18;;;-0.60;99.90;;;;;;5042527;28;20444;-66
2023/01/20 04:45:00;;;;;;;15.63;9.05;;;-0.60;99.90;;;;;;5043648;28;20020;-66
2023/01/20 04:47:29;;;;;;;14.73;8.80;;;-0.60;99.90;;;;;;5035015;28;20356;-67
2023/01/20 04:49:55;;;;;;;14.88;9.15;;;-0.70;99.90;;;;;;5050478;28;20025;-66
2023/01/20 04:52:20;;;;;;;15.18;9.20;;;-0.70;99.90;;;;;;5049822;28;20068;-67
2023/01/20 04:54:46;;;;;;;14.15;8.98;;;-0.70;99.90;;;;;;5040256;28;20037;-66
2023/01/20 04:57:12;;;;;;;14.63;8.98;;;-0.60;99.90;;;;;;5041756;28;20032;-66
2023/01/20 04:59:37;;;;;;;14.98;8.77;;;-0.60;99.90;;;;;;5050403;28;20033;-66
2023/01/20 05:02:03;;;;;;;16.70;9.23;;;-0.60;99.90;;;;;;5046794;28;20025;-66
2023/01/20 05:04:28;;;;;;;16.35;8.73;;;-0.60;99.90;;;;;;5039361;28;20494;-66
2023/01/20 05:06:54;;;;;;;12.48;7.93;;;-0.60;99.90;;;;;;5047713;28;20036;-66
2023/01/20 05:09:20;;;;;;;12.18;7.90;;;-0.60;99.90;;;;;;5038333;28;20041;-67
2023/01/20 05:11:45;;;;;;;13.98;9.15;;;-0.60;99.90;;;;;;5051238;28;20036;-66
2023/01/20 05:14:11;;;;;;;13.63;9.20;;;-0.60;99.90;;;;;;5044799;28;20037;-66
2023/01/20 05:16:37;;;;;;;14.52;9.23;;;-0.50;99.90;;;;;;5040170;28;20050;-66
2023/01/20 05:19:03;;;;;;;15.95;9.20;;;-0.50;99.90;;;;;;5040709;28;20121;-66
2023/01/20 05:21:28;;;;;;;17.52;9.63;;;-0.50;99.90;;;;;;5043189;28;20032;-66
2023/01/20 05:23:55;;;;;;;15.35;10.35;;;-0.60;99.90;;;;;;5040048;28;20118;-66
2023/01/20 05:26:25;;;;;;;16.77;11.02;;;-0.60;99.90;;;;;;5048553;28;20032;-68
2023/01/20 05:28:51;;;;;;;18.42;10.27;;;-0.60;99.90;;;;;;5044850;28;20052;-66
2023/01/20 05:31:17;;;;;;;16.38;10.40;;;-0.60;99.90;;;;;;5044203;28;20033;-67
2023/01/20 05:33:42;;;;;;;20.63;10.82;;;-0.50;99.90;;;;;;5042141;28;20086;-66
2023/01/20 05:36:10;;;;;;;17.90;8.70;;;-0.50;99.90;;;;;;5042461;28;20021;-66
2023/01/20 05:38:36;;;;;;;16.17;8.13;;;-0.50;99.90;;;;;;5043096;28;20544;-66
2023/01/20 05:41:05;;;;;;;18.05;8.23;;;-0.40;99.90;;;;;;5039295;28;20033;-66
2023/01/20 05:43:30;;;;;;;15.73;8.43;;;-0.40;99.90;;;;;;5041200;28;20033;-66
2023/01/20 05:45:56;;;;;;;16.60;8.98;;;-0.50;99.90;;;;;;5039945;28;20033;-66
2023/01/20 05:48:22;;;;;;;14.15;8.82;;;-0.60;99.90;;;;;;5047340;28;20025;-68
2023/01/20 05:50:47;;;;;;;13.50;8.55;;;-0.60;99.90;;;;;;5035197;28;20034;-66
2023/01/20 05:53:14;;;;;;;14.73;8.55;;;-0.60;99.90;;;;;;5039925;28;20128;-66
2023/01/20 05:55:39;;;;;;;13.73;8.52;;;-0.60;99.90;;;;;;5046560;28;20028;-66
2023/01/20 05:58:05;;;;;;;13.40;8.93;;;-0.70;99.90;;;;;;5038437;28;20021;-66
2023/01/20 06:00:31;;;;;;;13.30;8.60;;;-0.70;99.90;;;;;;5043428;28;20379;-66
2023/01/20 06:02:58;;;;;;;14.43;8.90;;;-0.70;99.90;;;;;;5042740;28;20037;-66
2023/01/20 06:05:23;;;;;;;14.25;9.32;;;-0.70;99.90;;;;;;5048317;28;20032;-66
2023/01/20 06:07:49;;;;;;;15.68;9.57;;;-0.80;99.90;;;;;;5051374;28;20029;-66
2023/01/20 06:10:16;;;;;;;13.85;8.38;;;-0.80;99.90;;;;;;5035405;28;20083;-66
2023/01/20 06:12:42;;;;;;;15.18;8.82;;;-0.80;99.90;;;;;;5047720;28;20037;-66
2023/01/20 06:15:08;;;;;;;13.73;9.25;;;-0.80;99.90;;;;;;5030952;28;20077;-66
2023/01/20 06:17:34;;;;;;;16.02;9.75;;;-0.90;99.90;;;;;;5034071;28;20052;-66
2023/01/20 06:20:00;;;;;;;14.45;9.45;;;-0.90;99.90;;;;;;5041925;28;20029;-66
2023/01/20 06:22:26;;;;;;;13.93;9.40;;;-0.90;99.90;;;;;;5037872;28;20037;-66
2023/01/20 06:24:52;;;;;;;16.80;9.50;;;-0.90;99.90;;;;;;5042581;28;20025;-66
2023/01/20 06:27:18;;;;;;;13.90;9.50;;;-0.90;99.90;;;;;;5043097;28;20031;-67
2023/01/20 06:29:44;;;;;;;15.10;9.35;;;-0.90;99.90;;;;;;5044321;28;20090;-67
2023/01/20 06:32:09;;;;;;;17.58;10.23;;;-0.80;99.90;;;;;;5041981;28;20021;-65
2023/01/20 06:34:35;;;;;;;20.25;11.70;;;-0.80;99.90;;;;;;5040250;28;20044;-65
2023/01/20 06:37:01;;;;;;;17.75;9.43;;;-0.80;99.90;;;;;;5038563;28;20060;-68
2023/01/20 06:39:27;;;;;;;16.25;10.02;;;-0.70;99.90;;;;;;5040488;28;20037;-70
2023/01/20 06:41:57;;;;;;;16.55;9.52;;;-0.70;99.90;;;;;;5042908;28;20032;-67
2023/01/20 06:44:23;;;;;;;18.65;10.07;;;-0.70;99.90;;;;;;5041786;28;20029;-66
2023/01/20 06:46:50;;;;;;;21.02;10.63;;;-0.80;99.90;;;;;;5040865;28;20470;-66
2023/01/20 06:49:17;;;;;;;17.27;10.07;;;-0.80;99.90;;;;;;5036810;28;20029;-67
2023/01/20 06:51:46;;;;;;;15.43;10.45;;;-0.70;99.90;;;;;;5041286;28;20033;-68
2023/01/20 06:54:12;;;;;;;15.88;9.90;;;-0.70;99.90;;;;;;5041850;28;20041;-65
2023/01/20 06:56:37;;;;;;;15.48;10.35;;;-0.80;99.90;;;;;;5038690;28;20642;-65
2023/01/20 06:59:03;;;;;;;16.25;10.48;;;-0.80;99.90;;;;;;5038582;28;20029;-65
2023/01/20 07:01:30;;;;;;;16.38;10.18;;;-0.80;99.90;;;;;;5044868;28;20032;-66
2023/01/20 07:03:56;;;;;;;15.18;9.88;;;-0.80;99.90;;;;;;5041270;28;20079;-64
2023/01/20 07:06:21;;;;;;;21.00;10.77;;;-0.80;99.90;;;;;;5042980;28;20113;-64
2023/01/20 07:08:47;;;;;;;23.40;10.85;;;-0.80;99.90;;;;;;5042845;28;20464;-64
2023/01/20 07:11:13;;;;;;;15.98;10.48;;;-0.80;99.90;;;;;;5043759;28;20124;-65
2023/01/20 07:13:39;;;;;;;16.88;10.65;;;-0.80;99.90;;;;;;5049550;28;20359;-64
2023/01/20 07:16:04;;;;;;;18.05;10.55;;;-0.70;99.90;;;;;;5039825;28;20058;-65
2023/01/20 07:18:30;;;;;;;16.38;10.68;;;-0.70;99.90;;;;;;5041744;28;20378;-65
2023/01/20 07:20:56;;;;;;;18.38;10.45;;;-0.60;99.90;;;;;;5043802;28;20458;-66
2023/01/20 07:23:22;;;;;;;17.73;10.55;;;-0.70;99.90;;;;;;5041929;28;20417;-67
2023/01/20 07:25:57;;;;;;;15.55;10.30;;;-0.60;99.90;;;;;;5047247;28;20033;-64
2023/01/20 07:28:22;;;;;;;16.95;9.10;;;-0.60;99.90;;;;;;5049836;28;20060;-65
2023/01/20 07:30:48;;;;;;;15.68;10.18;;;-0.60;99.90;;;;;;5041649;28;20118;-70
2023/01/20 07:33:13;;;;;;;16.25;9.80;;;-0.60;99.90;;;;;;5047159;28;20044;-65
2023/01/20 07:35:39;;;;;;;21.02;10.45;;;-0.50;99.90;;;;;;5041343;28;20112;-69
2023/01/20 07:38:05;;;;;;;15.55;8.77;;;-0.50;99.90;;;;;;5038869;28;20035;-67
2023/01/20 07:40:30;;;;;;;16.85;10.10;;;-0.50;99.90;;;;;;5043362;28;20036;-67
2023/01/20 07:42:56;;;;;;;15.90;10.30;;;-0.50;99.90;;;;;;5051446;28;20040;-66
2023/01/20 07:45:21;;;;;;;17.17;9.95;;;-0.50;99.90;;;;;;5039441;28;20040;-66
2023/01/20 07:47:47;;;;;;;13.45;8.95;;;-0.50;99.90;;;;;;5040481;28;20407;-65
2023/01/20 07:50:12;;;;;;;13.80;9.43;;;-0.50;99.90;;;;;;5050651;28;20032;-63
2023/01/20 07:52:38;;;;;;;12.57;8.88;;;-0.50;99.90;;;;;;5048116;28;20147;-64
2023/01/20 07:55:04;;;;;;;17.30;10.38;;;-0.50;99.90;;;;;;5050178;28;20108;-64
2023/01/20 07:57:30;;;;;;;16.20;10.20;;;-0.50;99.90;;;;;;5042608;28;20037;-64
2023/01/20 07:59:55;;;;;;;16.58;10.40;;;-0.40;99.90;;;;;;5035719;28;20021;-64
2023/01/20 08:02:21;;;;;;;18.75;10.60;;;-0.40;99.90;;;;;;5042114;28;20044;-66
2023/01/20 08:04:46;;;;;;;15.98;9.80;;;-0.30;99.90;;;;;;5052552;28;20037;-64
2023/01/20 08:07:12;;;;;;;13.45;8.95;;;-0.20;99.90;;;;;;5044419;28;20068;-64
2023/01/20 08:09:39;;;;;;;15.57;9.68;;;-0.10;99.90;;;;;;5038885;28;20029;-64
2023/01/20 08:12:05;;;;;;;17.20;10.43;;;0.00;99.90;;;;;;5051474;28;20037;-64
2023/01/20 08:14:31;;;;;;;16.27;9.85;;;0.20;99.90;;;;;;5036318;28;20134;-65
2023/01/20 08:16:58;;;;;;;17.00;9.57;;;0.30;99.90;;;;;;5045290;28;20049;-64
2023/01/20 08:19:27;;;;;;;14.48;9.00;;;0.40;99.90;;;;;;5048161;28;20086;-64
2023/01/20 08:21:53;;;;;;;16.67;9.25;;;0.50;99.90;;;;;;5045114;28;20083;-64
2023/01/20 08:24:19;;;;;;;16.23;10.10;;;0.50;99.90;;;;;;5043492;28;20049;-68
2023/01/20 08:26:44;;;;;;;14.63;8.75;;;0.60;99.90;;;;;;5042112;28;20082;-66
2023/01/20 08:29:10;;;;;;;18.17;9.15;;;0.60;99.90;;;;;;5040430;28;20470;-64
2023/01/20 08:31:36;;;;;;;15.18;9.70;;;0.60;99.90;;;;;;5051044;28;20037;-63
2023/01/20 08:34:01;;;;;;;16.55;9.10;;;0.60;99.90;;;;;;5049100;28;20059;-64
2023/01/20 08:36:30;;;;;;;15.82;8.60;;;0.60;99.90;;;;;;5041628;28;20033;-66
2023/01/20 08:38:57;;;;;;;13.55;8.82;;;0.60;99.90;;;;;;5046763;28;20397;-65
2023/01/20 08:41:29;;;;;;;14.70;8.68;;;0.70;99.90;;;;;;5041760;28;20040;-65
2023/01/20 08:43:58;;;;;;;15.68;9.50;;;0.60;99.90;;;;;;5040926;28;20029;-64
2023/01/20 08:46:23;;;;;;;15.80;10.00;;;0.70;99.90;;;;;;5050050;28;20036;-65
2023/01/20 08:48:50;;;;;;;14.52;9.52;;;0.70;99.90;;;;;;5049675;28;20024;-65
2023/01/20 08:51:19;;;;;;;15.48;9.30;;;0.80;99.90;;;;;;5050855;28;20091;-65
2023/01/20 08:53:45;;;;;;;15.47;9.50;;;0.80;99.90;;;;;;5039229;28;20044;-65
2023/01/20 08:56:12;;;;;;;20.05;9.45;;;0.90;99.90;;;;;;5048527;28;20104;-65
2023/01/20 08:58:38;;;;;;;18.48;9.20;;;0.90;99.90;;;;;;5038793;28;20204;-65
2023/01/20 09:01:11;;;;;;;15.00;9.48;;;0.90;99.90;;;;;;5039067;28;20458;-65
2023/01/20 09:03:38;;;;;;;18.75;10.35;;;0.90;99.90;;;;;;5045976;28;20147;-66
2023/01/20 09:06:05;;;;;;;14.88;8.63;;;1.00;99.90;;;;;;5046529;28;20098;-64
2023/01/20 09:08:31;;;;;;;14.52;9.52;;;1.00;99.90;;;;;;5047665;28;20025;-65
2023/01/20 09:11:15;;;;;;;16.67;9.30;;;0.90;99.90;;;;;;5048213;28;20389;-65
2023/01/20 09:13:40;;;;;;;19.23;10.15;;;1.00;99.90;;;;;;5043164;28;20709;-65
2023/01/20 09:16:07;;;;;;;15.15;8.98;;;1.00;99.90;;;;;;5048044;28;20095;-64
2023/01/20 09:18:34;;;;;;;16.42;8.95;;;1.00;99.90;;;;;;5042689;28;20029;-64
2023/01/20 09:21:01;;;;;;;14.57;8.25;;;1.00;99.90;;;;;;5051310;28;20359;-64
2023/01/20 09:23:27;;;;;;;14.32;8.68;;;0.90;99.90;;;;;;5039803;28;20026;-64
2023/01/20 09:25:53;;;;;;;14.95;9.05;;;0.90;99.90;;;;;;5046474;28;20067;-65
2023/01/20 09:28:19;;;;;;;14.73;8.57;;;0.80;99.90;;;;;;5044210;28;20060;-66
2023/01/20 09:30:44;;;;;;;13.60;9.07;;;0.80;99.90;;;;;;5042859;28;20500;-64
2023/01/20 09:33:11;;;;;;;11.10;7.97;;;0.80;99.90;;;;;;5045341;28;20041;-65
2023/01/20 09:35:36;;;;;;;14.77;8.95;;;0.80;99.90;;;;;;5036538;28;20094;-64
2023/01/20 09:44:43;;;;;;;14.13;8.25;;;0.90;99.90;;;;;;5039443;28;20166;-65
2023/01/20 09:47:26;;;;;;;15.07;8.73;;;0.90;99.90;;;;;;5045560;28;20032;-64
2023/01/20 09:53:14;;;;;;;13.65;8.45;;;0.90;99.90;;;;;;5046505;28;20101;-64
2023/01/20 09:55:42;;;;;;;14.10;8.05;;;1.00;99.90;;;;;;5043986;28;20113;-64
2023/01/20 09:58:45;;;;;;;14.10;9.20;;;0.90;99.90;;;;;;5042629;28;20025;-64
2023/01/20 10:01:34;;;;;;;13.85;8.63;;;1.00;99.90;;;;;;5044853;28;20104;-64
2023/01/20 10:04:18;;;;;;;13.52;8.20;;;1.00;99.90;;;;;;5036785;28;20049;-64
2023/01/20 10:06:48;;;;;;;13.73;8.52;;;1.00;99.90;;;;;;5047028;28;20024;-65
2023/01/20 10:09:24;;;;;;;16.38;8.63;;;1.00;99.90;;;;;;5040276;28;20466;-64
2023/01/20 10:12:06;;;;;;;13.07;8.85;;;1.00;99.90;;;;;;5049110;28;20112;-67
2023/01/20 10:14:37;;;;;;;16.10;9.63;;;0.90;99.90;;;;;;5044621;28;20550;-64
2023/01/20 10:17:15;;;;;;;13.85;8.73;;;0.90;99.90;;;;;;5041784;28;20052;-65
2023/01/20 10:19:55;;;;;;;14.82;8.38;;;0.80;99.90;;;;;;5045550;28;20823;-65
2023/01/20 10:22:41;;;;;;;17.23;8.85;;;0.80;99.90;;;;;;5042941;28;20028;-66
2023/01/20 10:25:32;;;;;;;13.98;8.60;;;0.80;99.90;;;;;;5040724;28;20048;-64
2023/01/20 10:28:05;;;;;;;14.95;8.48;;;0.90;99.90;;;;;;5048254;28;20025;-64
2023/01/20 10:30:34;;;;;;;15.55;8.75;;;0.90;99.90;;;;;;5042054;28;20056;-64
2023/01/20 10:33:11;;;;;;;16.08;8.02;;;1.00;99.90;;;;;;5042826;28;20033;-64
2023/01/20 10:35:43;;;;;;;12.55;8.20;;;1.00;99.90;;;;;;5045739;28;20116;-65
2023/01/20 10:38:20;;;;;;;13.50;8.27;;;1.00;99.90;;;;;;5045694;28;20040;-65
2023/01/20 10:40:55;;;;;;;13.20;8.68;;;0.90;99.90;;;;;;5042232;28;20037;-65
2023/01/20 10:43:21;;;;;;;16.10;9.38;;;0.90;99.90;;;;;;5035738;28;20079;-66
2023/01/20 10:46:15;;;;;;;14.98;8.43;;;1.00;99.90;;;;;;5053928;28;20410;-64
2023/01/20 10:48:52;;;;;;;13.77;8.20;;;1.00;99.90;;;;;;5043540;28;20640;-65
2023/01/20 10:51:27;;;;;;;13.20;8.70;;;0.90;99.90;;;;;;5043199;28;20036;-66
2023/01/20 10:54:05;;;;;;;16.27;9.20;;;0.90;99.90;;;;;;5047567;28;20040;-65
2023/01/20 10:56:44;;;;;;;12.02;7.95;;;0.90;99.90;;;;;;5053412;28;20033;-64
2023/01/20 10:59:17;;;;;;;20.80;9.10;;;0.90;99.90;;;;;;5047168;28;20029;-64
2023/01/20 11:01:48;;;;;;;14.68;8.27;;;0.90;99.90;;;;;;5053555;28;20112;-65
2023/01/20 11:04:18;;;;;;;12.88;7.80;;;1.00;99.90;;;;;;5045469;28;20033;-65
2023/01/20 11:06:48;;;;;;;15.93;9.25;;;0.90;99.90;;;;;;5043751;28;20060;-65
2023/01/20 11:09:19;;;;;;;;;;;1.00;99.90;;;;;;5041781;28;20037;-65
2023/01/20 11:11:46;;;;;;;12.25;7.00;;;1.00;99.90;;;;;;5045756;28;19919;-65
2023/01/20 11:14:11;;;;;;;13.15;7.13;;;1.10;99.90;;;;;;5045547;28;20056;-65
2023/01/20 11:16:39;;;;;;;10.95;5.93;;;1.10;99.90;;;;;;5051704;28;20654;-66
2023/01/20 11:19:06;;;;;;;12.23;5.68;;;1.30;99.90;;;;;;5052131;28;20025;-65
2023/01/20 11:21:35;;;;;;;8.90;5.22;;;1.40;99.90;;;;;;5047557;28;20036;-65
2023/01/20 11:24:02;;;;;;;9.13;5.70;;;1.60;99.90;;;;;;5049385;28;20033;-65
2023/01/20 11:26:33;;;;;;;10.57;5.35;;;1.80;99.90;;;;;;5043898;28;20022;-65
2023/01/20 11:29:07;;;;;;;11.48;5.03;;;2.10;99.90;;;;;;5042971;28;20087;-65
2023/01/20 11:31:38;;;;;;;8.27;5.43;;;2.30;99.90;;;;;;5041139;28;20061;-66
2023/01/20 11:34:33;;;;;;;9.70;5.18;;;2.70;99.90;;;;;;5043930;28;20048;-65
2023/01/20 11:37:02;;;;;;;7.05;4.45;;;;;;;;;;5048163;28;20440;-66
2023/01/20 11:39:43;;;;;;;6.22;4.20;;;3.50;99.90;;;;;;5052006;28;20025;-65
2023/01/20 11:42:19;;;;;;;7.55;3.80;;;3.70;99.90;;;;;;5047641;28;20037;-65
2023/01/20 11:44:49;;;;;;;8.77;4.57;;;3.80;99.90;;;;;;5040974;28;20033;-65
2023/01/20 11:47:27;;;;;;;8.55;4.45;;;3.90;99.90;;;;;;5049878;28;20025;-66
2023/01/20 11:50:07;;;;;;;8.48;4.50;;;4.00;99.90;;;;;;5048755;28;20363;-65
2023/01/20 11:52:39;;;;;;;7.70;4.28;;;4.10;99.90;;;;;;5043572;28;20039;-68
2023/01/20 11:55:11;;;;;;;7.85;4.00;;;4.10;99.90;;;;;;5043273;28;20064;-64
2023/01/20 11:57:38;;;;;;;4.10;2.65;;;4.10;99.90;;;;;;5048217;28;20521;-64
2023/01/20 12:00:24;;;;;;;6.07;2.75;;;3.90;99.90;;;;;;5052006;28;20353;-64
2023/01/20 12:03:12;;;;;;;7.78;2.95;;;3.70;99.90;;;;;;5050384;28;20500;-64
2023/01/20 12:06:00;;;;;;;6.30;3.10;;;3.30;99.90;;;;;;5042399;28;20578;-66
2023/01/20 12:08:38;;;;;;;5.10;2.58;;;3.10;99.90;;;;;;5043733;28;20029;-67
2023/01/20 12:11:06;;;;;;;5.43;2.97;;;2.90;99.90;;;;;;5052658;28;20060;-66
2023/01/20 12:16:26;;;;;;;5.50;2.55;;;2.70;99.90;;;;;;5041854;28;20401;-69
2023/01/20 12:18:56;;;;;;;7.28;2.85;;;2.50;99.90;;;;;;5044104;28;20029;-68
2023/01/20 12:21:25;;;;;;;;;;;2.50;99.90;;;;;;5046811;28;20078;-69
2023/01/20 12:23:59;;;;;;;5.28;3.08;;;2.50;99.90;;;;;;5048269;28;20262;-68
2023/01/20 12:26:27;;;;;;;7.32;3.42;;;2.40;99.90;;;;;;5045717;28;20104;-69
2023/01/20 12:29:01;;;;;;;4.10;2.90;;;2.40;99.90;;;;;;5043646;28;20032;-69
2023/01/20 12:31:29;;;;;;;9.13;3.65;;;2.40;99.90;;;;;;5044079;28;20029;-69
2023/01/20 12:33:58;;;;;;;7.85;2.92;;;2.40;99.90;;;;;;5051502;28;20426;-70
2023/01/20 12:36:48;;;;;;;6.00;3.20;;;2.60;99.90;;;;;;5048304;28;20374;-69
2023/01/20 12:39:29;;;;;;;;;;;2.60;99.90;;;;;;5048393;28;20124;-69
2023/01/20 12:42:19;;;;;;;6.57;3.08;;;2.60;99.90;;;;;;5041694;28;19966;-69
2023/01/20 12:45:03;;;;;;;8.50;3.10;;;2.70;99.90;;;;;;5050241;28;20044;-69
2023/01/20 12:47:50;;;;;;;5.78;2.65;;;2.70;99.90;;;;;;5049147;28;20029;-70
2023/01/20 12:50:48;;;;;;;6.07;2.70;;;2.70;99.90;;;;;;5046404;28;20025;-69
2023/01/20 12:53:37;;;;;;;5.32;2.65;;;2.80;99.90;;;;;;5047199;28;20040;-69
2023/01/20 12:56:24;;;;;;;6.63;2.88;;;2.80;99.90;;;;;;5046551;28;20359;-69
2023/01/20 12:59:15;;;;;;;5.30;2.88;;;2.80;99.90;;;;;;5043534;28;20048;-68
2023/01/20 13:02:14;;;;;;;5.85;3.13;;;2.80;99.90;;;;;;5038514;28;20029;-69
2023/01/20 13:04:58;;;;;;;6.72;3.03;;;2.70;99.90;;;;;;5041777;28;20033;-70